Time;durP1;ratioP1;P1;durP2;ratioP2;P2;SDS_P1;SDS_P2;PMS_P1;PMS_P2;Temp;Humidity;BMP_temperature;BMP_pressure;BME280_temperature;BME280_humidity;BME280_pressure;Samples;Min_cycle;Max_cycle;Signal;HPM_P1;HPM_P2
2021/08/24 00:02:18;;;;;;;9.13;8.05;;;19.40;83.60;;;;;;5052184;28;20028;-77
2021/08/24 00:04:44;;;;;;;8.27;7.05;;;19.40;83.80;;;;;;5052076;28;20021;-76
2021/08/24 00:07:10;;;;;;;11.32;8.00;;;19.40;83.80;;;;;;5052450;28;20027;-77
2021/08/24 00:09:36;;;;;;;9.70;8.50;;;19.40;83.80;;;;;;5052427;28;20100;-77
2021/08/24 00:12:03;;;;;;;7.95;7.15;;;19.50;83.80;;;;;;5052298;28;20025;-76
2021/08/24 00:14:31;;;;;;;8.27;7.35;;;19.50;83.60;;;;;;5044786;28;20032;-78
2021/08/24 00:16:57;;;;;;;9.63;7.78;;;19.50;83.80;;;;;;5052224;28;20359;-76
2021/08/24 00:19:23;;;;;;;9.85;7.13;;;19.50;83.70;;;;;;5034368;28;20377;-77
2021/08/24 00:21:50;;;;;;;7.75;6.90;;;19.50;83.60;;;;;;5051762;28;20021;-78
2021/08/24 00:24:17;;;;;;;12.15;8.20;;;19.50;83.50;;;;;;5051938;28;20027;-77
2021/08/24 00:26:43;;;;;;;9.68;7.80;;;19.50;83.30;;;;;;5051989;28;20021;-77
2021/08/24 00:29:09;;;;;;;10.00;9.00;;;19.50;83.50;;;;;;5033972;28;20055;-76
2021/08/24 00:31:35;;;;;;;11.55;9.07;;;19.50;83.30;;;;;;5052033;28;20036;-76
2021/08/24 00:34:01;;;;;;;10.93;8.85;;;19.50;83.20;;;;;;5051574;28;20025;-77
2021/08/24 00:36:27;;;;;;;10.88;9.30;;;19.50;83.20;;;;;;5052054;28;20390;-78
2021/08/24 00:38:53;;;;;;;10.68;9.10;;;19.40;82.80;;;;;;5051836;28;20017;-77
2021/08/24 00:41:19;;;;;;;11.75;9.70;;;19.40;83.00;;;;;;5051923;28;20029;-77
2021/08/24 00:43:46;;;;;;;12.52;8.70;;;19.40;83.00;;;;;;5051674;28;20569;-77
2021/08/24 00:46:50;;;;;;;12.20;8.98;;;19.40;82.80;;;;;;5051855;28;20021;-76
2021/08/24 00:49:18;;;;;;;12.43;9.00;;;19.40;82.20;;;;;;5033528;28;20021;-77
2021/08/24 00:51:51;;;;;;;10.13;8.93;;;19.40;82.90;;;;;;5031108;28;20094;-76
2021/08/24 00:54:23;;;;;;;9.60;8.60;;;19.40;83.10;;;;;;5051667;28;20017;-77
2021/08/24 00:56:56;;;;;;;10.50;8.13;;;19.40;82.90;;;;;;5051725;28;20083;-77
2021/08/24 00:59:23;;;;;;;8.50;7.60;;;19.40;83.10;;;;;;5034019;28;20128;-74
2021/08/24 01:01:49;;;;;;;9.95;8.18;;;19.40;83.60;;;;;;5033774;28;20015;-75
2021/08/24 01:04:17;;;;;;;10.98;8.80;;;19.40;83.60;;;;;;5035969;28;20025;-75
2021/08/24 01:06:59;;;;;;;12.70;10.10;;;19.50;83.50;;;;;;5049299;28;20078;-75
2021/08/24 01:09:42;;;;;;;11.93;9.55;;;19.40;83.10;;;;;;5055267;28;20336;-74
2021/08/24 01:12:38;;;;;;;11.85;9.18;;;19.40;82.90;;;;;;5057806;28;20066;-75
2021/08/24 01:15:29;;;;;;;13.48;9.80;;;19.40;82.50;;;;;;5057289;28;20032;-76
2021/08/24 01:18:06;;;;;;;10.85;9.27;;;19.40;82.50;;;;;;5057967;28;20021;-75
2021/08/24 01:20:47;;;;;;;13.95;8.98;;;19.40;82.80;;;;;;5057734;28;20017;-76
2021/08/24 01:23:40;;;;;;;8.88;7.80;;;19.40;82.60;;;;;;5057771;28;20032;-76
2021/08/24 01:26:21;;;;;;;11.40;8.60;;;19.40;82.60;;;;;;5037889;28;20151;-75
2021/08/24 01:29:05;;;;;;;11.68;8.90;;;19.40;82.80;;;;;;5037787;28;20502;-76
2021/08/24 01:31:53;;;;;;;9.15;8.02;;;19.40;83.10;;;;;;5020129;28;20017;-76
2021/08/24 01:34:24;;;;;;;9.77;7.22;;;19.40;82.80;;;;;;5043628;28;20536;-75
2021/08/24 01:37:04;;;;;;;10.73;7.93;;;19.50;83.10;;;;;;5057636;28;20048;-75
2021/08/24 01:39:40;;;;;;;12.45;6.80;;;19.40;82.60;;;;;;5057631;28;20025;-75
2021/08/24 01:42:15;;;;;;;9.07;7.20;;;19.40;82.80;;;;;;5056623;28;20211;-75
2021/08/24 01:45:13;;;;;;;7.72;6.88;;;19.40;82.80;;;;;;5054663;28;20120;-77
2021/08/24 01:48:20;;;;;;;8.93;8.02;;;19.40;82.30;;;;;;5040887;28;20034;-75
2021/08/24 01:50:59;;;;;;;11.15;7.88;;;19.40;82.30;;;;;;5033698;28;20087;-76
2021/08/24 01:53:53;;;;;;;13.32;8.60;;;19.40;82.70;;;;;;5037776;28;20025;-75
2021/08/24 01:56:25;;;;;;;9.93;8.90;;;19.40;82.10;;;;;;5036448;28;20036;-76
2021/08/24 01:58:55;;;;;;;14.07;10.30;;;19.40;82.50;;;;;;5019846;28;20033;-76
2021/08/24 02:01:34;;;;;;;10.63;8.05;;;19.40;82.50;;;;;;5037820;28;20155;-75
2021/08/24 02:04:02;;;;;;;11.32;8.93;;;19.40;82.40;;;;;;5039634;28;20031;-76
2021/08/24 02:06:42;;;;;;;11.00;8.07;;;19.40;82.80;;;;;;5057514;28;20091;-76
2021/08/24 02:09:30;;;;;;;12.98;8.23;;;19.40;82.60;;;;;;5057693;28;20557;-75
2021/08/24 02:11:57;;;;;;;9.00;7.95;;;19.40;82.60;;;;;;5056970;28;20508;-77
2021/08/24 02:14:24;;;;;;;11.35;9.38;;;19.40;82.60;;;;;;5057325;28;20029;-75
2021/08/24 02:16:51;;;;;;;10.65;8.93;;;19.30;82.50;;;;;;5039458;28;20238;-76
2021/08/24 02:19:32;;;;;;;9.15;7.97;;;19.30;82.50;;;;;;5057565;28;20067;-76
2021/08/24 02:22:11;;;;;;;9.65;8.57;;;19.30;82.30;;;;;;5053361;28;20021;-76
2021/08/24 02:24:44;;;;;;;10.48;8.85;;;19.40;82.50;;;;;;5043035;28;20111;-76
2021/08/24 02:27:18;;;;;;;10.85;8.02;;;19.30;82.60;;;;;;5053051;28;20032;-76
2021/08/24 02:29:43;;;;;;;8.13;6.90;;;19.30;82.50;;;;;;5054185;28;20375;-75
2021/08/24 02:32:14;;;;;;;8.90;7.35;;;19.40;82.90;;;;;;5052639;28;20094;-76
2021/08/24 02:34:57;;;;;;;8.30;6.75;;;19.40;82.80;;;;;;5053976;28;20028;-76
2021/08/24 02:37:47;;;;;;;8.23;6.43;;;19.40;82.30;;;;;;5053867;28;20470;-76
2021/08/24 02:40:24;;;;;;;6.85;6.07;;;19.40;82.60;;;;;;5054338;28;20021;-75
2021/08/24 02:42:55;;;;;;;7.15;6.20;;;19.40;82.50;;;;;;5054002;28;20356;-76
2021/08/24 02:45:37;;;;;;;7.70;6.97;;;19.40;82.50;;;;;;5053515;28;20037;-76
2021/08/24 02:48:07;;;;;;;6.68;5.97;;;19.30;82.20;;;;;;5045537;28;20071;-76
2021/08/24 02:50:34;;;;;;;6.90;6.05;;;19.30;82.40;;;;;;5033828;28;20025;-75
2021/08/24 02:53:01;;;;;;;5.80;5.20;;;19.40;82.40;;;;;;5032656;28;20132;-76
2021/08/24 02:55:27;;;;;;;5.32;4.82;;;19.30;82.20;;;;;;5049298;28;20100;-76
2021/08/24 02:57:53;;;;;;;4.68;4.07;;;19.30;82.20;;;;;;5053644;28;20025;-75
2021/08/24 03:00:19;;;;;;;6.47;4.78;;;19.30;82.20;;;;;;5053628;28;20032;-76
2021/08/24 03:02:44;;;;;;;4.88;4.38;;;19.30;81.70;;;;;;5053697;28;20021;-76
2021/08/24 03:05:10;;;;;;;3.60;3.30;;;19.20;81.70;;;;;;5042345;28;20032;-77
2021/08/24 03:07:38;;;;;;;4.03;3.63;;;19.20;82.00;;;;;;5053525;28;20035;-76
2021/08/24 03:10:14;;;;;;;3.17;2.88;;;19.30;82.00;;;;;;5035490;28;20112;-75
2021/08/24 03:12:43;;;;;;;4.57;3.10;;;19.30;81.90;;;;;;5053470;28;20079;-77
2021/08/24 03:15:21;;;;;;;6.78;2.65;;;19.30;82.10;;;;;;5053002;28;20033;-76
2021/08/24 03:18:14;;;;;;;3.53;3.22;;;19.20;81.60;;;;;;5053250;28;20021;-76
2021/08/24 03:20:43;;;;;;;6.43;2.75;;;19.20;81.00;;;;;;5053322;28;20025;-75
2021/08/24 03:23:13;;;;;;;2.55;2.33;;;19.20;81.00;;;;;;5035082;28;20035;-75
2021/08/24 03:25:43;;;;;;;2.70;1.98;;;19.20;81.20;;;;;;5015531;28;20064;-76
2021/08/24 03:28:19;;;;;;;2.88;2.13;;;19.20;81.10;;;;;;5033093;28;20045;-76
2021/08/24 03:30:45;;;;;;;2.30;2.10;;;19.20;81.20;;;;;;5015447;28;20033;-76
2021/08/24 03:33:12;;;;;;;2.00;1.80;;;19.10;81.70;;;;;;5014911;28;20088;-76
2021/08/24 03:35:38;;;;;;;1.67;1.58;;;19.10;81.50;;;;;;5033865;28;20436;-76
2021/08/24 03:38:05;;;;;;;2.85;2.17;;;19.10;81.40;;;;;;5034009;28;20030;-76
2021/08/24 03:40:31;;;;;;;1.85;1.75;;;19.10;81.20;;;;;;5035044;28;20033;-75
2021/08/24 03:42:57;;;;;;;1.92;1.73;;;19.10;81.40;;;;;;5036051;28;20032;-76
2021/08/24 03:45:23;;;;;;;2.15;1.80;;;19.10;81.40;;;;;;5053535;28;20013;-76
2021/08/24 03:47:49;;;;;;;3.55;1.90;;;19.10;81.30;;;;;;5051549;28;20037;-75
2021/08/24 03:50:15;;;;;;;4.90;1.73;;;19.10;81.00;;;;;;5069338;28;20061;-76
2021/08/24 03:52:41;;;;;;;1.88;1.65;;;19.10;81.10;;;;;;5052914;28;20108;-75
2021/08/24 03:55:07;;;;;;;1.90;1.73;;;19.10;81.20;;;;;;5052380;28;20071;-75
2021/08/24 03:57:33;;;;;;;3.20;2.03;;;19.10;80.80;;;;;;5049793;28;20041;-75
2021/08/24 03:59:59;;;;;;;1.77;1.67;;;19.10;80.90;;;;;;5053524;28;20024;-76
2021/08/24 04:02:26;;;;;;;1.50;1.40;;;19.10;81.00;;;;;;5054145;28;20027;-76
2021/08/24 04:04:52;;;;;;;3.97;1.65;;;19.10;81.00;;;;;;5042681;28;20021;-78
2021/08/24 04:07:18;;;;;;;4.03;2.03;;;19.10;80.90;;;;;;5036580;28;20111;-76
2021/08/24 04:09:44;;;;;;;3.17;1.80;;;19.10;80.40;;;;;;5053223;28;20033;-77
2021/08/24 04:12:10;;;;;;;2.17;1.80;;;19.10;80.20;;;;;;5035423;28;20459;-77
2021/08/24 04:14:36;;;;;;;1.60;1.50;;;19.10;80.00;;;;;;5044128;28;20109;-76
2021/08/24 04:17:02;;;;;;;2.10;1.90;;;19.10;80.20;;;;;;5051638;28;20125;-77
2021/08/24 04:19:28;;;;;;;2.95;2.33;;;19.10;80.00;;;;;;5053055;28;20474;-76
2021/08/24 04:21:53;;;;;;;1.67;1.58;;;19.00;79.90;;;;;;5053084;28;20374;-76
2021/08/24 04:24:19;;;;;;;2.38;2.00;;;19.10;79.80;;;;;;5052668;28;20441;-76
2021/08/24 04:26:45;;;;;;;2.38;2.13;;;19.10;79.50;;;;;;5052431;28;20100;-76
2021/08/24 04:29:11;;;;;;;3.55;1.80;;;19.10;79.20;;;;;;5052551;28;20140;-77
2021/08/24 04:31:39;;;;;;;1.75;1.65;;;19.00;78.90;;;;;;5052857;28;20525;-76
2021/08/24 04:34:05;;;;;;;2.40;2.00;;;19.10;78.90;;;;;;5040061;28;20079;-76
2021/08/24 04:36:32;;;;;;;2.83;2.03;;;19.00;78.50;;;;;;5052794;28;20478;-77
2021/08/24 04:38:58;;;;;;;2.42;1.95;;;19.10;78.90;;;;;;5051644;28;20056;-78
2021/08/24 04:41:24;;;;;;;3.22;1.77;;;19.10;78.80;;;;;;5052567;28;20041;-76
2021/08/24 04:43:50;;;;;;;1.67;1.55;;;19.10;79.80;;;;;;5052340;28;20067;-78
2021/08/24 04:46:16;;;;;;;1.90;1.70;;;19.10;79.40;;;;;;5052502;28;20100;-77
2021/08/24 04:48:42;;;;;;;2.28;1.60;;;19.10;79.60;;;;;;5035643;28;20064;-77
2021/08/24 04:51:08;;;;;;;7.47;1.98;;;19.10;79.50;;;;;;5052688;28;20479;-77
2021/08/24 04:53:34;;;;;;;2.55;2.10;;;19.20;79.20;;;;;;5052341;28;20138;-76
2021/08/24 04:56:00;;;;;;;2.72;1.88;;;19.20;79.00;;;;;;5052359;28;20025;-77
2021/08/24 04:58:25;;;;;;;2.00;1.70;;;19.10;78.90;;;;;;5052447;28;20040;-77
2021/08/24 05:00:51;;;;;;;2.20;1.52;;;19.20;78.70;;;;;;5052090;28;20025;-76
2021/08/24 05:03:17;;;;;;;5.47;1.55;;;19.20;78.70;;;;;;5052302;28;20474;-77
2021/08/24 05:05:43;;;;;;;2.15;1.95;;;19.20;78.20;;;;;;5052445;28;20017;-78
2021/08/24 05:08:09;;;;;;;3.33;1.73;;;19.20;78.60;;;;;;5052550;28;20017;-76
2021/08/24 05:10:35;;;;;;;2.95;1.20;;;19.20;78.40;;;;;;5052231;28;20037;-77
2021/08/24 05:13:02;;;;;;;2.80;1.65;;;19.20;78.50;;;;;;5050948;28;20048;-76
2021/08/24 05:15:29;;;;;;;2.47;1.45;;;19.20;77.70;;;;;;5052002;28;20485;-76
2021/08/24 05:17:55;;;;;;;2.67;1.63;;;19.20;77.20;;;;;;5046925;28;20052;-76
2021/08/24 05:20:21;;;;;;;1.40;1.20;;;19.20;78.50;;;;;;5034335;28;20025;-76
2021/08/24 05:22:47;;;;;;;3.38;1.73;;;19.20;77.60;;;;;;5051992;28;20118;-75
2021/08/24 05:25:20;;;;;;;2.45;1.42;;;19.20;78.00;;;;;;5052213;28;20029;-76
2021/08/24 05:27:46;;;;;;;3.42;1.50;;;19.20;77.50;;;;;;5052005;28;20021;-75
2021/08/24 05:30:15;;;;;;;1.60;1.50;;;19.30;77.80;;;;;;5052212;28;20136;-77
2021/08/24 05:32:41;;;;;;;2.90;1.80;;;19.20;77.40;;;;;;5049858;28;20029;-77
2021/08/24 05:35:07;;;;;;;2.85;1.45;;;19.20;77.70;;;;;;5051416;28;20055;-76
2021/08/24 05:37:33;;;;;;;5.07;1.45;;;19.20;77.60;;;;;;5051696;28;20059;-76
2021/08/24 05:39:59;;;;;;;6.80;1.60;;;19.20;76.70;;;;;;5050847;28;20063;-76
2021/08/24 05:42:24;;;;;;;2.47;1.48;;;19.20;76.70;;;;;;5050902;28;20017;-76
2021/08/24 05:44:50;;;;;;;1.85;1.30;;;19.10;76.20;;;;;;5051773;28;20374;-76
2021/08/24 05:47:16;;;;;;;2.00;1.50;;;19.20;76.40;;;;;;5052074;28;20064;-76
2021/08/24 05:49:42;;;;;;;2.22;1.80;;;19.20;76.90;;;;;;5052450;28;20021;-76
2021/08/24 05:52:09;;;;;;;1.60;1.50;;;19.20;76.80;;;;;;5034793;28;20457;-76
2021/08/24 05:54:36;;;;;;;3.10;1.48;;;19.20;76.40;;;;;;5052182;28;20031;-75
2021/08/24 05:57:04;;;;;;;6.40;1.60;;;19.10;76.60;;;;;;5053949;28;20118;-77
2021/08/24 05:59:34;;;;;;;2.58;1.48;;;19.20;76.50;;;;;;5054789;28;20028;-76
2021/08/24 06:02:00;;;;;;;2.17;1.40;;;19.20;76.70;;;;;;5055770;28;20013;-76
2021/08/24 06:04:26;;;;;;;1.98;1.33;;;19.20;77.20;;;;;;5037782;28;20032;-76
2021/08/24 06:06:53;;;;;;;1.30;1.20;;;19.20;77.10;;;;;;5055934;28;20012;-76
2021/08/24 06:09:19;;;;;;;1.48;1.35;;;19.30;76.90;;;;;;5055406;28;20033;-76
2021/08/24 06:11:50;;;;;;;5.20;1.42;;;19.30;77.70;;;;;;5035789;28;20111;-76
2021/08/24 06:14:20;;;;;;;1.77;1.30;;;19.30;77.60;;;;;;5035694;28;20040;-76
2021/08/24 06:16:45;;;;;;;2.08;1.35;;;19.40;77.40;;;;;;5042643;28;20029;-76
2021/08/24 06:19:12;;;;;;;2.25;1.70;;;19.40;77.20;;;;;;5055213;28;20033;-76
2021/08/24 06:21:39;;;;;;;4.03;2.00;;;19.50;77.60;;;;;;5046726;28;20025;-76
2021/08/24 06:24:06;;;;;;;3.67;1.60;;;19.50;77.00;;;;;;5050181;28;20044;-77
2021/08/24 06:26:32;;;;;;;2.00;1.60;;;19.60;76.80;;;;;;5035085;28;20037;-77
2021/08/24 06:28:59;;;;;;;4.15;2.00;;;19.60;75.70;;;;;;5041650;28;20041;-75
2021/08/24 06:31:27;;;;;;;5.50;1.70;;;19.70;75.90;;;;;;5054923;28;20025;-76
2021/08/24 06:33:54;;;;;;;2.15;1.58;;;19.70;75.10;;;;;;5055326;28;20052;-77
2021/08/24 06:36:20;;;;;;;1.98;1.35;;;19.70;74.60;;;;;;5037237;28;20033;-76
2021/08/24 06:38:48;;;;;;;3.03;1.52;;;19.70;74.80;;;;;;5036541;28;20028;-76
2021/08/24 06:41:15;;;;;;;3.67;1.90;;;19.70;75.60;;;;;;5036343;28;20490;-78
2021/08/24 06:43:42;;;;;;;12.38;1.27;;;19.70;75.20;;;;;;5053595;28;20108;-77
2021/08/24 06:46:08;;;;;;;2.80;1.13;;;19.80;75.20;;;;;;5033066;28;20035;-76
2021/08/24 06:48:34;;;;;;;1.00;0.90;;;19.80;75.90;;;;;;5051340;28;20398;-76
2021/08/24 06:51:01;;;;;;;1.40;1.30;;;19.90;76.60;;;;;;5057915;28;20029;-76
2021/08/24 06:53:41;;;;;;;1.10;1.00;;;19.90;75.70;;;;;;5060981;28;20028;-76
2021/08/24 06:56:11;;;;;;;3.95;1.20;;;19.90;75.60;;;;;;5040464;28;20497;-76
2021/08/24 06:58:39;;;;;;;2.55;1.00;;;19.90;75.60;;;;;;5039133;28;20431;-76
2021/08/24 07:01:05;;;;;;;1.88;1.08;;;20.00;74.70;;;;;;5037013;28;20036;-75
2021/08/24 07:03:31;;;;;;;2.05;1.08;;;20.00;74.30;;;;;;5054307;28;20029;-76
2021/08/24 07:05:57;;;;;;;1.73;1.08;;;20.00;74.10;;;;;;5054998;28;20021;-75
2021/08/24 07:08:23;;;;;;;2.25;1.40;;;20.00;74.70;;;;;;5054937;28;20025;-76
2021/08/24 07:10:49;;;;;;;3.92;1.25;;;20.00;74.30;;;;;;5055114;28;20021;-77
2021/08/24 07:13:18;;;;;;;5.35;1.35;;;20.10;74.10;;;;;;5048600;28;20028;-75
2021/08/24 07:15:43;;;;;;;1.35;1.00;;;20.20;74.60;;;;;;5054713;28;20021;-76
2021/08/24 07:18:10;;;;;;;1.00;0.90;;;20.30;73.80;;;;;;5054229;28;20028;-75
2021/08/24 07:20:36;;;;;;;2.17;1.30;;;20.40;74.50;;;;;;5036595;28;20060;-75
2021/08/24 07:23:02;;;;;;;3.88;1.10;;;20.40;72.70;;;;;;5053772;28;20415;-76
2021/08/24 07:25:31;;;;;;;1.98;1.02;;;20.50;73.40;;;;;;5054312;28;20037;-76
2021/08/24 07:27:58;;;;;;;1.80;0.85;;;20.60;72.60;;;;;;5040055;28;20082;-77
2021/08/24 07:30:24;;;;;;;5.85;1.20;;;20.60;72.80;;;;;;5054358;28;20111;-76
2021/08/24 07:32:49;;;;;;;2.30;1.00;;;20.70;72.60;;;;;;5053929;28;20489;-76
2021/08/24 07:35:17;;;;;;;1.83;1.00;;;20.70;71.80;;;;;;5054256;28;20024;-76
2021/08/24 07:37:43;;;;;;;1.80;0.77;;;20.80;72.80;;;;;;5052895;28;20035;-77
2021/08/24 07:40:10;;;;;;;1.02;0.90;;;20.90;71.90;;;;;;5056266;28;20021;-77
2021/08/24 07:42:36;;;;;;;2.10;0.80;;;20.90;71.50;;;;;;5074100;28;20028;-76
2021/08/24 07:45:02;;;;;;;2.65;1.40;;;20.80;71.60;;;;;;5048154;28;20456;-76
2021/08/24 07:47:28;;;;;;;1.25;0.70;;;20.90;71.10;;;;;;5053974;28;20605;-76
2021/08/24 07:49:54;;;;;;;1.27;0.90;;;20.90;72.00;;;;;;5053663;28;20029;-77
2021/08/24 07:52:20;;;;;;;2.22;0.88;;;20.90;71.30;;;;;;5053811;28;20036;-76
2021/08/24 07:54:46;;;;;;;1.90;0.65;;;21.00;71.40;;;;;;5053768;28;20029;-77
2021/08/24 07:57:11;;;;;;;2.17;1.00;;;21.00;71.40;;;;;;5053403;28;20417;-76
2021/08/24 07:59:37;;;;;;;2.88;0.88;;;21.00;70.60;;;;;;5046611;28;20033;-76
2021/08/24 08:02:03;;;;;;;0.77;0.75;;;21.10;70.70;;;;;;5045314;28;20048;-76
2021/08/24 08:04:29;;;;;;;3.00;1.02;;;21.10;69.70;;;;;;5052258;28;20025;-76
2021/08/24 08:06:56;;;;;;;2.65;0.90;;;21.20;70.50;;;;;;5052676;28;20040;-76
2021/08/24 08:09:21;;;;;;;1.52;0.90;;;21.20;70.30;;;;;;5052676;28;20095;-77
2021/08/24 08:11:51;;;;;;;1.30;0.70;;;21.20;69.20;;;;;;5052576;28;20029;-76
2021/08/24 08:14:18;;;;;;;0.85;0.60;;;21.10;68.40;;;;;;5051836;28;20020;-76
2021/08/24 08:16:44;;;;;;;1.35;0.60;;;21.10;68.30;;;;;;5052329;28;20028;-76
2021/08/24 08:19:11;;;;;;;0.63;0.50;;;21.10;68.60;;;;;;5050470;28;20036;-76
2021/08/24 08:21:39;;;;;;;2.67;0.50;;;21.10;68.20;;;;;;5051029;28;20024;-76
2021/08/24 08:24:05;;;;;;;0.75;0.70;;;21.10;68.70;;;;;;5052347;28;20394;-77
2021/08/24 08:26:33;;;;;;;7.57;1.83;;;21.10;68.20;;;;;;5052277;28;20513;-76
2021/08/24 08:29:03;;;;;;;3.25;0.95;;;21.20;69.50;;;;;;5050352;28;20053;-76
2021/08/24 08:31:29;;;;;;;3.47;1.02;;;21.20;69.90;;;;;;5052126;28;20070;-77
2021/08/24 08:33:55;;;;;;;4.25;1.70;;;21.30;70.00;;;;;;5052081;28;20033;-77
2021/08/24 08:36:20;;;;;;;8.98;1.55;;;21.40;69.60;;;;;;5052235;28;20041;-76
2021/08/24 08:38:46;;;;;;;6.30;1.58;;;21.40;68.30;;;;;;5051884;28;20032;-76
2021/08/24 08:41:26;;;;;;;4.80;1.80;;;21.50;67.90;;;;;;5052041;28;20025;-76
2021/08/24 08:44:04;;;;;;;5.78;1.63;;;21.60;69.70;;;;;;5052088;28;20017;-76
2021/08/24 08:46:48;;;;;;;2.40;1.10;;;21.60;67.80;;;;;;5038536;28;20029;-77
2021/08/24 08:49:20;;;;;;;2.65;1.27;;;21.70;67.80;;;;;;5052131;28;20024;-77
2021/08/24 08:52:04;;;;;;;1.83;1.23;;;21.70;66.30;;;;;;5051534;28;20029;-76
2021/08/24 08:55:02;;;;;;;2.03;1.20;;;21.70;66.40;;;;;;5050665;28;20112;-76
2021/08/24 08:57:53;;;;;;;1.98;1.10;;;21.70;67.70;;;;;;5051576;28;20037;-76
2021/08/24 09:00:33;;;;;;;5.07;1.33;;;21.70;67.80;;;;;;5042592;28;20014;-76
2021/08/24 09:03:13;;;;;;;2.30;1.20;;;21.70;68.50;;;;;;5044627;28;20029;-76
2021/08/24 09:05:39;;;;;;;1.30;0.98;;;21.80;68.20;;;;;;5052079;28;20028;-76
2021/08/24 09:08:05;;;;;;;1.80;0.80;;;22.00;68.10;;;;;;5034214;28;20094;-77
2021/08/24 09:10:44;;;;;;;1.95;0.90;;;22.00;66.40;;;;;;5051727;28;20059;-76
2021/08/24 09:13:24;;;;;;;3.30;1.10;;;22.10;67.10;;;;;;5041710;28;20071;-76
2021/08/24 09:16:03;;;;;;;1.70;0.93;;;22.10;66.00;;;;;;5033968;28;20032;-76
2021/08/24 09:18:53;;;;;;;1.80;0.98;;;22.00;65.50;;;;;;5042737;28;20052;-76
2021/08/24 09:21:23;;;;;;;1.38;1.00;;;21.90;66.60;;;;;;5055596;28;20016;-76
2021/08/24 09:23:52;;;;;;;2.05;1.20;;;21.80;67.10;;;;;;5033499;28;20025;-77
2021/08/24 09:26:42;;;;;;;1.75;0.93;;;21.70;66.70;;;;;;5051582;28;20044;-76
2021/08/24 09:29:09;;;;;;;2.53;1.45;;;21.50;67.50;;;;;;5051650;28;20045;-77
2021/08/24 09:31:35;;;;;;;1.80;1.25;;;21.40;67.40;;;;;;5055706;28;20470;-77
2021/08/24 09:34:02;;;;;;;4.25;1.48;;;21.30;67.40;;;;;;5058420;28;20104;-76
2021/08/24 09:36:28;;;;;;;1.45;1.15;;;21.10;67.70;;;;;;5059360;28;20180;-76
2021/08/24 09:38:59;;;;;;;1.40;1.20;;;21.00;67.50;;;;;;5055523;28;20096;-77
2021/08/24 09:41:32;;;;;;;6.45;2.20;;;21.00;69.40;;;;;;5054600;28;20044;-76
2021/08/24 09:44:22;;;;;;;1.25;1.05;;;21.00;70.00;;;;;;5037577;28;20466;-74
2021/08/24 09:46:53;;;;;;;2.60;1.50;;;21.10;70.60;;;;;;5054869;28;20029;-74
2021/08/24 09:49:22;;;;;;;3.97;0.90;;;21.20;69.50;;;;;;5055035;28;20100;-74
2021/08/24 09:51:52;;;;;;;1.15;0.98;;;21.30;70.60;;;;;;5037566;28;20029;-74
2021/08/24 09:54:39;;;;;;;1.85;1.30;;;21.40;70.10;;;;;;5055459;28;20056;-73
2021/08/24 09:57:29;;;;;;;1.35;1.00;;;21.50;69.70;;;;;;5055080;28;20104;-74
2021/08/24 10:00:18;;;;;;;4.07;1.02;;;21.70;69.40;;;;;;5055619;28;20016;-73
2021/08/24 10:02:47;;;;;;;1.08;0.85;;;21.90;68.60;;;;;;5050938;28;20482;-72
2021/08/24 10:05:22;;;;;;;6.38;0.90;;;22.00;69.60;;;;;;5054878;28;20292;-74
2021/08/24 10:07:50;;;;;;;4.38;1.00;;;22.20;68.90;;;;;;5054820;28;20032;-72
2021/08/24 10:10:29;;;;;;;2.63;1.17;;;22.20;66.80;;;;;;5054771;28;20139;-72
2021/08/24 10:12:57;;;;;;;2.08;0.90;;;22.30;67.70;;;;;;5054916;28;20024;-72
2021/08/24 10:15:33;;;;;;;1.48;0.90;;;22.50;68.70;;;;;;5044400;28;20033;-73
2021/08/24 10:18:01;;;;;;;3.88;1.40;;;22.60;67.40;;;;;;5053311;28;20116;-69
2021/08/24 10:20:33;;;;;;;3.45;0.90;;;22.70;65.50;;;;;;5055203;28;20039;-70
2021/08/24 10:23:03;;;;;;;1.25;0.88;;;22.80;65.10;;;;;;5054114;28;20035;-78
2021/08/24 10:25:42;;;;;;;1.52;0.70;;;22.90;65.40;;;;;;5052887;28;20060;-70
2021/08/24 10:28:24;;;;;;;1.23;0.90;;;23.00;65.00;;;;;;5054176;28;20102;-78
2021/08/24 10:30:54;;;;;;;1.48;0.98;;;23.00;64.40;;;;;;5053110;28;20064;-70
2021/08/24 10:33:52;;;;;;;1.33;0.98;;;23.00;65.30;;;;;;5055392;28;20029;-69
2021/08/24 10:36:24;;;;;;;1.60;0.82;;;23.00;65.10;;;;;;5049398;28;20071;-71
2021/08/24 10:39:20;;;;;;;1.40;1.20;;;23.00;64.40;;;;;;5054030;28;20025;-70
2021/08/24 10:42:06;;;;;;;2.47;1.20;;;23.00;64.40;;;;;;5052465;28;20021;-69
2021/08/24 10:44:59;;;;;;;2.05;1.48;;;22.90;64.00;;;;;;5040403;28;20033;-70
2021/08/24 10:47:28;;;;;;;3.05;0.85;;;22.90;63.90;;;;;;5011990;28;20489;-70
2021/08/24 10:49:56;;;;;;;1.73;1.00;;;22.90;64.30;;;;;;5054744;28;20458;-70
2021/08/24 10:52:40;;;;;;;0.85;0.80;;;22.80;64.80;;;;;;5053945;28;20075;-69
2021/08/24 10:55:29;;;;;;;0.90;0.80;;;22.80;64.60;;;;;;5054725;28;20021;-70
2021/08/24 10:58:04;;;;;;;10.13;1.65;;;22.80;65.30;;;;;;5044897;28;20028;-69
2021/08/24 11:00:53;;;;;;;2.50;1.60;;;22.70;64.20;;;;;;5041053;28;20047;-70
2021/08/24 11:03:28;;;;;;;1.80;1.50;;;22.70;65.20;;;;;;5054823;28;20510;-71
2021/08/24 11:06:21;;;;;;;1.85;1.20;;;22.70;66.40;;;;;;5054754;28;20056;-70
2021/08/24 11:09:06;;;;;;;2.22;1.27;;;22.70;68.10;;;;;;5054728;28;20029;-69
2021/08/24 11:11:37;;;;;;;1.60;0.80;;;22.80;68.40;;;;;;5039190;28;20052;-70
2021/08/24 11:14:31;;;;;;;4.20;0.63;;;22.90;66.10;;;;;;5043680;28;20066;-73
2021/08/24 11:17:24;;;;;;;1.02;0.70;;;23.00;65.90;;;;;;5036721;28;20078;-70
2021/08/24 11:20:11;;;;;;;3.50;0.73;;;23.00;65.70;;;;;;5038285;28;20056;-70
2021/08/24 11:23:27;;;;;;;4.18;0.70;;;23.10;66.60;;;;;;5054686;28;20049;-70
2021/08/24 11:26:12;;;;;;;1.25;0.70;;;23.10;65.50;;;;;;4973569;28;20078;-72
2021/08/24 11:28:43;;;;;;;0.77;0.57;;;23.20;67.20;;;;;;4969504;28;20047;-68
2021/08/24 11:31:16;;;;;;;0.60;0.60;;;23.20;66.80;;;;;;4955273;28;20050;-70
2021/08/24 11:33:57;;;;;;;0.90;0.40;;;23.20;65.60;;;;;;4954190;29;20043;-68
2021/08/24 11:36:34;;;;;;;0.93;0.47;;;23.30;66.30;;;;;;4954954;28;20035;-76
2021/08/24 11:39:06;;;;;;;0.82;0.50;;;23.30;65.60;;;;;;4954138;29;20032;-69
2021/08/24 11:41:35;;;;;;;0.80;0.63;;;23.30;65.70;;;;;;4953897;29;20446;-69
2021/08/24 11:44:12;;;;;;;0.40;0.40;;;23.30;64.20;;;;;;4953938;29;20477;-69
2021/08/24 11:47:08;;;;;;;0.52;0.40;;;23.30;65.20;;;;;;4966950;28;20094;-70
2021/08/24 11:50:04;;;;;;;0.40;0.40;;;23.30;64.50;;;;;;4972615;28;20050;-69
2021/08/24 11:52:37;;;;;;;2.72;0.50;;;23.30;64.40;;;;;;4972679;28;20038;-69
2021/08/24 11:55:21;;;;;;;0.30;0.30;;;23.40;65.40;;;;;;4971956;28;20516;-70
2021/08/24 11:58:01;;;;;;;0.30;0.30;;;23.40;65.10;;;;;;4953613;29;20074;-70
2021/08/24 12:00:27;;;;;;;1.02;0.40;;;23.40;65.10;;;;;;5027870;28;20448;-70
2021/08/24 12:02:53;;;;;;;0.30;0.30;;;23.50;64.20;;;;;;5053566;28;20485;-70
2021/08/24 12:05:32;;;;;;;1.52;0.55;;;23.50;63.00;;;;;;5052457;28;20036;-76
2021/08/24 12:08:09;;;;;;;1.15;0.60;;;23.50;62.60;;;;;;5050816;28;20028;-76
2021/08/24 12:10:50;;;;;;;1.65;0.90;;;23.60;64.10;;;;;;5053492;28;20446;-76
2021/08/24 12:13:40;;;;;;;2.45;0.73;;;23.70;64.80;;;;;;5053443;28;20466;-76
2021/08/24 12:16:09;;;;;;;0.77;0.45;;;23.80;64.20;;;;;;5053120;28;20025;-75
2021/08/24 12:18:37;;;;;;;0.32;0.32;;;23.90;63.10;;;;;;5052573;28;20025;-75
2021/08/24 12:21:31;;;;;;;1.60;0.50;;;23.90;59.90;;;;;;5052804;28;20048;-77
2021/08/24 12:24:18;;;;;;;1.00;0.63;;;24.00;62.20;;;;;;5053319;28;20013;-77
2021/08/24 12:26:44;;;;;;;5.93;0.63;;;24.00;63.70;;;;;;5035827;28;20517;-77
2021/08/24 12:29:34;;;;;;;0.75;0.30;;;24.10;61.80;;;;;;5053063;28;20076;-77
2021/08/24 12:32:38;;;;;;;3.45;0.50;;;24.10;60.60;;;;;;5035536;28;20028;-77
2021/08/24 12:35:14;;;;;;;0.40;0.28;;;24.00;61.50;;;;;;5035233;28;20029;-77
2021/08/24 12:37:40;;;;;;;0.80;0.30;;;24.00;59.50;;;;;;5053124;28;20034;-77
2021/08/24 12:40:12;;;;;;;1.00;0.30;;;23.90;59.30;;;;;;5035365;28;20033;-77
2021/08/24 12:42:40;;;;;;;0.95;0.47;;;23.90;59.40;;;;;;5053064;28;20021;-77
2021/08/24 12:45:07;;;;;;;0.75;0.43;;;23.80;62.30;;;;;;5035134;28;20024;-78
2021/08/24 12:48:04;;;;;;;0.43;0.40;;;23.80;62.80;;;;;;5052776;28;20021;-78
2021/08/24 12:50:33;;;;;;;0.25;0.20;;;23.80;59.40;;;;;;5052899;28;20052;-77
2021/08/24 12:53:27;;;;;;;0.75;0.40;;;23.80;62.20;;;;;;5052808;28;20025;-77
2021/08/24 12:55:53;;;;;;;;;;;23.70;60.40;;;;;;5053288;28;20029;-77
2021/08/24 12:58:44;;;;;;;0.57;0.30;;;23.80;62.80;;;;;;5052990;28;20002;-77
2021/08/24 13:01:20;;;;;;;0.82;0.43;;;23.80;59.70;;;;;;5034993;28;20063;-77
2021/08/24 13:03:58;;;;;;;0.55;0.30;;;23.80;61.70;;;;;;5052576;28;20032;-77
2021/08/24 13:06:27;;;;;;;0.17;0.17;;;23.80;59.40;;;;;;5052816;28;20114;-77
2021/08/24 13:09:23;;;;;;;1.65;0.30;;;23.70;58.80;;;;;;5034996;28;20048;-77
2021/08/24 13:12:07;;;;;;;3.20;0.35;;;23.70;59.90;;;;;;5052703;28;20377;-77
2021/08/24 13:14:52;;;;;;;0.20;0.20;;;23.70;59.40;;;;;;5052852;28;20021;-77